createdAt,value
2023-08-01T00:01:08.477Z,14.73
2023-08-01T00:03:34.785Z,14.80
2023-08-01T00:06:01.071Z,14.77
2023-08-01T00:08:27.335Z,14.83
2023-08-01T00:10:53.600Z,14.83
2023-08-01T00:13:19.919Z,14.74
2023-08-01T00:15:57.563Z,14.76
2023-08-01T00:18:31.389Z,14.75
2023-08-01T00:20:57.655Z,14.76
2023-08-01T00:23:23.882Z,14.76
2023-08-01T00:25:50.198Z,14.77
2023-08-01T00:28:16.545Z,14.73
2023-08-01T00:30:42.857Z,14.82
2023-08-01T00:33:09.120Z,14.84
2023-08-01T00:35:35.351Z,14.89
2023-08-01T00:38:01.602Z,14.86
2023-08-01T00:40:27.836Z,14.86
2023-08-01T00:42:54.048Z,14.83
2023-08-01T00:45:20.339Z,14.85
2023-08-01T00:47:46.662Z,14.84
2023-08-01T00:50:12.997Z,14.81
2023-08-01T00:52:39.284Z,14.81
2023-08-01T00:55:05.603Z,14.80
2023-08-01T00:57:31.914Z,14.81
2023-08-01T00:59:58.178Z,14.80
2023-08-01T01:02:24.516Z,14.85
2023-08-01T01:04:50.823Z,14.81
2023-08-01T01:07:17.092Z,14.81
2023-08-01T01:09:43.314Z,14.75
2023-08-01T01:12:09.592Z,14.75
2023-08-01T01:14:35.847Z,14.93
2023-08-01T01:17:02.269Z,14.85
2023-08-01T01:19:28.560Z,14.82
2023-08-01T01:21:54.824Z,14.81
2023-08-01T01:24:21.091Z,14.81
2023-08-01T01:26:47.375Z,14.81
2023-08-01T01:29:13.624Z,14.85
2023-08-01T01:31:39.919Z,14.82
2023-08-01T01:34:06.161Z,14.83
2023-08-01T01:36:32.432Z,14.79
2023-08-01T01:38:58.690Z,14.82
2023-08-01T01:41:24.985Z,14.80
2023-08-01T01:43:51.206Z,14.85
2023-08-01T01:46:17.483Z,14.83
2023-08-01T01:48:43.807Z,15.00
2023-08-01T01:51:10.089Z,14.88
2023-08-01T01:53:36.472Z,14.86
2023-08-01T01:56:02.746Z,14.95
2023-08-01T01:58:29.006Z,14.96
2023-08-01T02:00:55.278Z,14.92
2023-08-01T02:03:21.724Z,14.99
2023-08-01T02:05:47.982Z,14.96
2023-08-01T02:08:14.259Z,14.94
2023-08-01T02:10:40.528Z,14.89
2023-08-01T02:13:06.784Z,14.96
2023-08-01T02:15:33.053Z,14.98
2023-08-01T02:17:59.415Z,15.04
2023-08-01T02:20:25.782Z,15.03
2023-08-01T02:22:52.050Z,15.06
2023-08-01T02:25:18.302Z,14.98
2023-08-01T02:27:44.589Z,15.01
2023-08-01T02:30:10.942Z,14.97
2023-08-01T02:32:37.415Z,15.12
2023-08-01T02:35:03.699Z,15.04
2023-08-01T02:37:29.916Z,14.98
2023-08-01T02:39:56.157Z,14.92
2023-08-01T02:42:22.431Z,14.92
2023-08-01T02:44:48.724Z,14.90
2023-08-01T02:47:14.984Z,14.92
2023-08-01T02:49:41.288Z,14.86
2023-08-01T02:52:07.589Z,14.80
2023-08-01T02:54:33.841Z,14.77
2023-08-01T02:57:00.168Z,14.83
2023-08-01T02:59:27.346Z,14.68
2023-08-01T03:01:53.662Z,14.69
2023-08-01T03:04:22.230Z,14.70
2023-08-01T03:06:52.836Z,14.75
2023-08-01T03:09:19.174Z,14.67
2023-08-01T03:11:45.474Z,14.70
2023-08-01T03:14:11.726Z,14.65
2023-08-01T03:16:38.198Z,14.60
2023-08-01T03:19:04.740Z,14.57
2023-08-01T03:21:30.962Z,14.56
2023-08-01T03:23:57.187Z,14.52
2023-08-01T03:26:23.469Z,14.62
2023-08-01T03:28:49.759Z,14.58
2023-08-01T03:31:15.985Z,14.67
2023-08-01T03:33:42.664Z,14.56
2023-08-01T03:36:08.919Z,14.41
2023-08-01T03:38:36.553Z,14.50
2023-08-01T03:41:03.041Z,14.41
2023-08-01T03:43:29.304Z,14.38
2023-08-01T03:45:55.655Z,14.25
2023-08-01T03:48:22.020Z,14.31
2023-08-01T03:50:48.328Z,14.17
2023-08-01T03:53:14.585Z,14.13
2023-08-01T03:55:40.837Z,14.12
2023-08-01T03:58:07.046Z,14.14
2023-08-01T04:00:33.285Z,14.14
2023-08-01T04:02:59.563Z,14.22
2023-08-01T04:05:25.847Z,14.22
2023-08-01T04:07:52.127Z,14.21
2023-08-01T04:10:18.369Z,14.04
2023-08-01T04:12:44.581Z,13.92
2023-08-01T04:15:10.780Z,13.93
2023-08-01T04:17:37.142Z,13.84
2023-08-01T04:20:03.882Z,13.89
2023-08-01T04:22:30.179Z,13.84
2023-08-01T04:24:56.462Z,13.80
2023-08-01T04:27:22.686Z,13.89
2023-08-01T04:29:48.968Z,13.71
2023-08-01T04:32:15.234Z,13.69
2023-08-01T04:34:41.498Z,13.80
2023-08-01T04:37:07.758Z,13.79
2023-08-01T04:39:33.972Z,13.66
2023-08-01T04:42:00.209Z,13.49
2023-08-01T04:44:26.480Z,13.52
2023-08-01T04:46:52.989Z,13.54
2023-08-01T04:49:19.280Z,13.43
2023-08-01T04:51:46.482Z,13.43
2023-08-01T04:54:12.882Z,13.45
2023-08-01T04:56:39.323Z,13.56
2023-08-01T04:59:05.792Z,13.58
2023-08-01T05:01:32.035Z,13.57
2023-08-01T05:03:58.802Z,13.44
2023-08-01T05:06:25.154Z,13.58
2023-08-01T05:08:51.435Z,13.60
2023-08-01T05:11:17.728Z,13.51
2023-08-01T05:13:43.978Z,13.43
2023-08-01T05:16:10.280Z,13.49
2023-08-01T05:18:36.662Z,13.45
2023-08-01T05:21:02.915Z,13.51
2023-08-01T05:23:29.173Z,13.49
2023-08-01T05:25:55.399Z,13.29
2023-08-01T05:28:21.657Z,13.31
2023-08-01T05:30:48.020Z,13.41
2023-08-01T05:33:14.282Z,13.35
2023-08-01T05:35:40.536Z,13.38
2023-08-01T05:38:06.759Z,13.37
2023-08-01T05:40:33.014Z,13.39
2023-08-01T05:42:59.268Z,13.33
2023-08-01T05:45:25.524Z,13.27
2023-08-01T05:47:51.821Z,13.33
2023-08-01T05:50:18.111Z,13.28
2023-08-01T05:52:44.353Z,13.45
2023-08-01T05:55:10.645Z,13.51
2023-08-01T05:57:36.868Z,13.55
2023-08-01T06:00:03.140Z,13.62
2023-08-01T06:02:29.493Z,13.76
2023-08-01T06:04:55.843Z,13.57
2023-08-01T06:07:22.142Z,13.52
2023-08-01T06:09:48.459Z,13.43
2023-08-01T06:12:14.729Z,13.56
2023-08-01T06:14:42.238Z,13.48
2023-08-01T06:17:08.466Z,13.51
2023-08-01T06:19:34.753Z,13.35
2023-08-01T06:22:01.029Z,13.35
2023-08-01T06:24:27.347Z,13.25
2023-08-01T06:26:53.624Z,13.41
2023-08-01T06:29:19.927Z,13.33
2023-08-01T06:31:46.166Z,13.33
2023-08-01T06:34:12.491Z,13.29
2023-08-01T06:36:39.003Z,13.34
2023-08-01T06:39:05.535Z,13.28
2023-08-01T06:41:31.805Z,13.34
2023-08-01T06:43:58.110Z,13.40
2023-08-01T06:46:24.416Z,13.40
2023-08-01T06:48:50.671Z,13.48
2023-08-01T06:51:16.981Z,13.52
2023-08-01T06:53:43.262Z,13.46
2023-08-01T06:56:09.510Z,13.51
2023-08-01T06:58:35.836Z,13.65
2023-08-01T07:01:02.137Z,13.73
2023-08-01T07:03:28.420Z,13.73
2023-08-01T07:05:54.836Z,13.88
2023-08-01T07:08:21.092Z,13.86
2023-08-01T07:10:47.413Z,13.89
2023-08-01T07:13:13.697Z,13.88
2023-08-01T07:15:39.970Z,13.79
2023-08-01T07:18:06.386Z,13.80
2023-08-01T07:20:32.717Z,13.80
2023-08-01T07:22:58.921Z,13.78
2023-08-01T07:25:25.155Z,13.69
2023-08-01T07:27:51.371Z,13.83
2023-08-01T07:30:18.023Z,13.68
2023-08-01T07:32:44.377Z,13.94
2023-08-01T07:35:10.644Z,13.79
2023-08-01T07:37:36.880Z,13.61
2023-08-01T07:40:03.200Z,13.63
2023-08-01T07:42:29.455Z,13.65
2023-08-01T07:44:55.739Z,13.73
2023-08-01T07:47:22.035Z,13.90
2023-08-01T07:49:48.935Z,13.93
2023-08-01T07:52:15.182Z,13.96
2023-08-01T07:54:41.414Z,14.06
2023-08-01T07:57:07.705Z,13.95
2023-08-01T07:59:33.940Z,13.75
2023-08-01T08:02:01.595Z,13.68
2023-08-01T08:04:27.872Z,13.67
2023-08-01T08:06:54.134Z,13.76
2023-08-01T08:09:20.399Z,13.80
2023-08-01T08:11:46.637Z,14.08
2023-08-01T08:14:12.901Z,14.32
2023-08-01T08:16:39.378Z,14.30
2023-08-01T08:19:06.026Z,14.21
2023-08-01T08:21:32.270Z,14.18
2023-08-01T08:23:58.614Z,14.13
2023-08-01T08:26:24.892Z,14.05
2023-08-01T08:28:51.112Z,14.10
2023-08-01T08:31:17.511Z,13.79
2023-08-01T08:33:43.796Z,13.66
2023-08-01T08:36:10.095Z,13.71
2023-08-01T08:38:36.392Z,13.74
2023-08-01T08:41:02.644Z,13.86
2023-08-01T08:43:28.945Z,14.04
2023-08-01T08:45:55.186Z,14.17
2023-08-01T08:48:21.470Z,14.39
2023-08-01T08:50:47.733Z,14.32
2023-08-01T08:53:14.144Z,14.41
2023-08-01T08:55:40.522Z,14.44
2023-08-01T08:58:06.800Z,14.31
2023-08-01T09:00:33.060Z,14.22
2023-08-01T09:02:59.487Z,14.31
2023-08-01T09:05:25.926Z,14.32
2023-08-01T09:07:52.363Z,14.37
2023-08-01T09:10:18.783Z,14.54
2023-08-01T09:12:45.245Z,14.52
2023-08-01T09:15:11.619Z,14.78
2023-08-01T09:17:38.091Z,14.60
2023-08-01T09:20:04.617Z,14.33
2023-08-01T09:22:30.905Z,14.28
2023-08-01T09:24:57.305Z,14.35
2023-08-01T09:27:23.849Z,14.40
2023-08-01T09:29:50.097Z,14.37
2023-08-01T09:32:16.519Z,14.54
2023-08-01T09:34:43.247Z,14.58
2023-08-01T09:37:09.644Z,14.52
2023-08-01T09:39:35.919Z,14.56
2023-08-01T09:42:02.269Z,14.78
2023-08-01T09:44:28.534Z,14.89
2023-08-01T09:46:54.787Z,15.10
2023-08-01T09:49:21.085Z,15.25
2023-08-01T09:51:47.358Z,15.31
2023-08-01T09:54:13.653Z,15.48
2023-08-01T09:56:40.374Z,15.45
2023-08-01T09:59:06.858Z,15.30
2023-08-01T10:01:33.161Z,15.29
2023-08-01T10:03:59.452Z,15.19
2023-08-01T10:06:25.759Z,15.37
2023-08-01T10:08:52.076Z,15.42
2023-08-01T10:11:18.322Z,15.38
2023-08-01T10:13:44.612Z,15.49
2023-08-01T10:16:10.938Z,15.78
2023-08-01T10:18:37.228Z,15.68
2023-08-01T10:21:03.478Z,15.71
2023-08-01T10:23:29.765Z,15.89
2023-08-01T10:25:56.042Z,15.93
2023-08-01T10:28:22.285Z,16.11
2023-08-01T10:30:48.581Z,16.37
2023-08-01T10:33:14.862Z,16.37
2023-08-01T10:35:41.216Z,16.09
2023-08-01T10:38:07.493Z,16.44
2023-08-01T10:40:33.761Z,16.85
2023-08-01T10:42:59.965Z,16.89
2023-08-01T10:45:28.723Z,16.79
2023-08-01T10:47:56.666Z,17.10
2023-08-01T10:50:23.056Z,17.47
2023-08-01T10:52:49.319Z,16.94
2023-08-01T10:55:15.588Z,17.17
2023-08-01T10:57:45.175Z,17.40
2023-08-01T11:00:11.526Z,17.81
2023-08-01T11:02:37.909Z,17.51
2023-08-01T11:05:04.219Z,16.88
2023-08-01T11:07:30.573Z,16.45
2023-08-01T11:09:56.884Z,15.90
2023-08-01T11:12:23.113Z,15.53
2023-08-01T11:14:49.389Z,15.75
2023-08-01T11:17:15.653Z,16.49
2023-08-01T11:19:41.972Z,16.71
2023-08-01T11:22:08.252Z,16.67
2023-08-01T11:24:34.474Z,16.54
2023-08-01T11:27:00.879Z,16.92
2023-08-01T11:29:27.195Z,16.99
2023-08-01T11:31:53.479Z,16.77
2023-08-01T11:34:19.788Z,16.26
2023-08-01T11:36:46.067Z,15.92
2023-08-01T11:39:12.338Z,16.14
2023-08-01T11:41:38.632Z,16.21
2023-08-01T11:44:04.915Z,16.49
2023-08-01T11:46:31.154Z,16.66
2023-08-01T11:48:57.370Z,17.16
2023-08-01T11:51:25.221Z,17.27
2023-08-01T11:53:52.059Z,17.28
2023-08-01T11:56:18.356Z,16.85
2023-08-01T11:58:44.599Z,16.37
2023-08-01T12:01:10.907Z,16.77
2023-08-01T12:03:37.604Z,16.95
2023-08-01T12:06:03.985Z,16.51
2023-08-01T12:08:30.238Z,16.40
2023-08-01T12:10:56.516Z,16.50
2023-08-01T12:13:22.769Z,16.37
2023-08-01T12:15:49.072Z,16.23
2023-08-01T12:18:15.291Z,16.55
2023-08-01T12:20:41.530Z,16.74
2023-08-01T12:23:07.772Z,16.88
2023-08-01T12:25:34.114Z,16.89
2023-08-01T12:28:00.369Z,16.60
2023-08-01T12:30:26.641Z,16.68
2023-08-01T12:32:52.966Z,16.76
2023-08-01T12:35:19.195Z,16.56
2023-08-01T12:37:45.477Z,15.51
2023-08-01T12:40:12.126Z,14.81
2023-08-01T12:42:38.421Z,14.46
2023-08-01T12:45:04.709Z,14.31
2023-08-01T12:47:31.007Z,14.16
2023-08-01T12:49:57.381Z,14.00
2023-08-01T12:52:23.675Z,14.06
2023-08-01T12:54:49.884Z,14.33
2023-08-01T12:57:16.105Z,14.52
2023-08-01T12:59:42.382Z,14.81
2023-08-01T13:02:08.637Z,14.76
2023-08-01T13:04:34.989Z,14.72
2023-08-01T13:07:01.249Z,14.81
2023-08-01T13:09:27.598Z,14.99
2023-08-01T13:11:53.887Z,15.45
2023-08-01T13:14:22.764Z,15.89
2023-08-01T13:16:49.327Z,15.76
2023-08-01T13:19:15.620Z,15.62
2023-08-01T13:21:41.905Z,15.62
2023-08-01T13:24:08.103Z,15.45
2023-08-01T13:26:34.447Z,15.64
2023-08-01T13:29:00.683Z,15.98
2023-08-01T13:31:26.990Z,15.93
2023-08-01T13:33:53.274Z,16.01
2023-08-01T13:36:19.519Z,16.10
2023-08-01T13:38:45.849Z,16.25
2023-08-01T13:41:12.131Z,16.36
2023-08-01T13:43:38.375Z,16.35
2023-08-01T13:46:07.725Z,16.40
2023-08-01T13:48:36.720Z,16.10
2023-08-01T13:51:02.974Z,15.97
2023-08-01T13:53:29.325Z,16.03
2023-08-01T13:55:55.615Z,16.00
2023-08-01T13:58:21.906Z,15.97
2023-08-01T14:00:48.209Z,16.10
2023-08-01T14:03:14.545Z,16.36
2023-08-01T14:05:40.954Z,16.44
2023-08-01T14:08:07.237Z,16.19
2023-08-01T14:10:33.531Z,16.23
2023-08-01T14:12:59.789Z,16.17
2023-08-01T14:15:26.026Z,16.31
2023-08-01T14:17:52.369Z,16.38
2023-08-01T14:20:18.658Z,16.30
2023-08-01T14:22:44.941Z,16.28
2023-08-01T14:25:11.450Z,16.30
2023-08-01T14:27:37.671Z,16.22
2023-08-01T14:30:03.945Z,16.09
2023-08-01T14:32:30.281Z,16.46
2023-08-01T14:34:56.594Z,17.01
2023-08-01T14:37:22.874Z,16.86
2023-08-01T14:39:49.084Z,17.59
2023-08-01T14:42:15.363Z,18.11
2023-08-01T14:44:41.628Z,17.82
2023-08-01T14:47:07.885Z,17.50
2023-08-01T14:49:34.116Z,17.12
2023-08-01T14:52:00.401Z,16.81
2023-08-01T14:54:39.603Z,16.88
2023-08-01T14:57:07.990Z,17.21
2023-08-01T14:59:34.239Z,17.12
2023-08-01T15:02:00.696Z,17.19
2023-08-01T15:04:27.036Z,17.23
2023-08-01T15:06:53.748Z,17.58
2023-08-01T15:09:20.028Z,17.32
2023-08-01T15:11:46.259Z,17.12
2023-08-01T15:14:12.547Z,17.05
2023-08-01T15:16:39.120Z,17.31
2023-08-01T15:19:05.555Z,17.80
2023-08-01T15:21:31.818Z,18.05
2023-08-01T15:23:58.489Z,17.79
2023-08-01T15:26:24.769Z,17.73
2023-08-01T15:28:51.055Z,17.65
2023-08-01T15:31:17.358Z,17.78
2023-08-01T15:33:43.623Z,17.48
2023-08-01T15:36:09.889Z,17.36
2023-08-01T15:38:36.143Z,17.16
2023-08-01T15:41:02.410Z,17.14
2023-08-01T15:43:28.769Z,17.70
2023-08-01T15:45:55.047Z,18.15
2023-08-01T15:48:21.373Z,18.34
2023-08-01T15:50:47.671Z,18.25
2023-08-01T15:53:14.038Z,18.07
2023-08-01T15:55:40.289Z,17.49
2023-08-01T15:58:06.538Z,17.51
2023-08-01T16:00:34.709Z,17.27
2023-08-01T16:03:01.074Z,17.30
2023-08-01T16:05:27.420Z,17.33
2023-08-01T16:07:53.667Z,17.70
2023-08-01T16:10:19.880Z,17.77
2023-08-01T16:12:46.150Z,17.43
2023-08-01T16:15:12.415Z,17.06
2023-08-01T16:17:38.657Z,17.03
2023-08-01T16:20:04.934Z,17.67
2023-08-01T16:22:31.162Z,17.99
2023-08-01T16:24:57.432Z,18.34
2023-08-01T16:27:23.764Z,18.44
2023-08-01T16:29:50.040Z,17.79
2023-08-01T16:32:16.316Z,17.42
2023-08-01T16:34:42.613Z,17.05
2023-08-01T16:37:08.873Z,16.95
2023-08-01T16:39:35.153Z,17.04
2023-08-01T16:42:01.457Z,16.92
2023-08-01T16:44:27.682Z,16.68
2023-08-01T16:46:54.224Z,16.64
2023-08-01T16:49:23.339Z,16.91
2023-08-01T16:51:49.955Z,17.17
2023-08-01T16:54:16.487Z,17.53
2023-08-01T16:56:43.086Z,17.31
2023-08-01T16:59:09.952Z,16.83
2023-08-01T17:01:36.183Z,16.68
2023-08-01T17:04:04.550Z,16.60
2023-08-01T17:06:33.122Z,16.65
2023-08-01T17:08:59.420Z,16.34
2023-08-01T17:11:25.825Z,16.32
2023-08-01T17:13:52.126Z,16.35
2023-08-01T17:16:18.503Z,16.28
2023-08-01T17:18:44.796Z,16.31
2023-08-01T17:21:11.057Z,16.22
2023-08-01T17:23:37.318Z,16.20
2023-08-01T17:26:03.622Z,16.13
2023-08-01T17:28:29.945Z,16.02
2023-08-01T17:30:56.263Z,16.25
2023-08-01T17:33:22.660Z,16.31
2023-08-01T17:35:49.002Z,16.37
2023-08-01T17:38:15.271Z,16.28
2023-08-01T17:40:41.775Z,16.16
2023-08-01T17:43:08.069Z,16.15
2023-08-01T17:45:34.358Z,16.25
2023-08-01T17:48:00.666Z,16.28
2023-08-01T17:50:26.982Z,16.44
2023-08-01T17:52:53.303Z,16.68
2023-08-01T17:55:19.532Z,16.78
2023-08-01T17:57:45.891Z,16.62
2023-08-01T18:00:12.263Z,16.51
2023-08-01T18:02:38.995Z,16.63
2023-08-01T18:05:05.456Z,16.48
2023-08-01T18:07:31.719Z,16.44
2023-08-01T18:09:58.028Z,16.40
2023-08-01T18:12:24.261Z,16.19
2023-08-01T18:14:50.555Z,16.13
2023-08-01T18:17:17.018Z,16.20
2023-08-01T18:19:43.422Z,16.16
2023-08-01T18:22:09.638Z,16.14
2023-08-01T18:24:35.868Z,15.99
2023-08-01T18:27:02.111Z,15.95
2023-08-01T18:29:28.366Z,15.76
2023-08-01T18:31:55.025Z,15.70
2023-08-01T18:34:21.293Z,15.62
2023-08-01T18:36:47.604Z,15.58
2023-08-01T18:39:13.911Z,15.58
2023-08-01T18:41:40.177Z,15.46
2023-08-01T18:44:07.593Z,15.51
2023-08-01T18:46:33.919Z,15.45
2023-08-01T18:49:00.200Z,15.32
2023-08-01T18:51:26.466Z,15.38
2023-08-01T18:53:52.717Z,15.34
2023-08-01T18:56:19.013Z,15.28
2023-08-01T18:58:45.295Z,15.23
2023-08-01T19:01:11.561Z,15.31
2023-08-01T19:03:37.989Z,15.30
2023-08-01T19:06:04.384Z,15.25
2023-08-01T19:08:30.758Z,15.27
2023-08-01T19:10:58.794Z,15.13
2023-08-01T19:13:25.207Z,15.09
2023-08-01T19:15:51.569Z,15.11
2023-08-01T19:18:17.827Z,15.09
2023-08-01T19:20:44.102Z,15.06
2023-08-01T19:23:10.367Z,14.94
2023-08-01T19:25:36.677Z,14.96
2023-08-01T19:28:02.941Z,14.83
2023-08-01T19:30:29.168Z,14.83
2023-08-01T19:32:55.493Z,14.80
2023-08-01T19:35:21.895Z,14.84
2023-08-01T19:37:48.159Z,14.85
2023-08-01T19:40:14.420Z,14.81
2023-08-01T19:42:40.709Z,14.90
2023-08-01T19:45:07.015Z,14.95
2023-08-01T19:47:33.279Z,14.80
2023-08-01T19:49:59.594Z,14.74
2023-08-01T19:52:25.862Z,14.74
2023-08-01T19:54:52.255Z,14.80
2023-08-01T19:57:18.529Z,14.83
2023-08-01T19:59:44.769Z,14.84
2023-08-01T20:02:11.079Z,14.91
2023-08-01T20:04:37.525Z,14.88
2023-08-01T20:07:04.029Z,14.56
2023-08-01T20:09:30.299Z,14.63
2023-08-01T20:11:56.625Z,14.63
2023-08-01T20:14:22.917Z,14.65
2023-08-01T20:16:49.173Z,14.56
2023-08-01T20:19:15.427Z,14.62
2023-08-01T20:21:41.757Z,14.66
2023-08-01T20:24:08.001Z,14.70
2023-08-01T20:26:35.155Z,14.69
2023-08-01T20:29:01.394Z,14.56
2023-08-01T20:31:27.660Z,14.60
2023-08-01T20:33:53.890Z,14.41
2023-08-01T20:36:20.133Z,14.46
2023-08-01T20:38:46.396Z,14.35
2023-08-01T20:41:12.609Z,14.25
2023-08-01T20:43:38.869Z,14.21
2023-08-01T20:46:05.227Z,14.15
2023-08-01T20:48:31.522Z,14.04
2023-08-01T20:50:57.780Z,14.10
2023-08-01T20:53:24.032Z,14.17
2023-08-01T20:55:50.307Z,14.11
2023-08-01T20:58:16.559Z,14.17
2023-08-01T21:00:42.813Z,14.18
2023-08-01T21:03:09.050Z,14.09
2023-08-01T21:05:35.316Z,14.16
2023-08-01T21:08:03.464Z,14.12
2023-08-01T21:10:29.687Z,14.04
2023-08-01T21:12:55.891Z,13.97
2023-08-01T21:15:22.185Z,13.91
2023-08-01T21:17:48.498Z,13.95
2023-08-01T21:20:14.847Z,13.94
2023-08-01T21:22:41.108Z,13.76
2023-08-01T21:25:07.355Z,13.71
2023-08-01T21:27:33.623Z,13.79
2023-08-01T21:29:59.932Z,13.86
2023-08-01T21:32:26.232Z,13.86
2023-08-01T21:34:52.482Z,13.92
2023-08-01T21:37:18.720Z,13.90
2023-08-01T21:39:44.943Z,13.83
2023-08-01T21:42:11.311Z,13.82
2023-08-01T21:44:37.534Z,13.65
2023-08-01T21:47:03.872Z,13.67
2023-08-01T21:49:30.285Z,13.74
2023-08-01T21:51:56.606Z,13.76
2023-08-01T21:54:22.978Z,13.75
2023-08-01T21:56:49.205Z,13.89
2023-08-01T21:59:15.474Z,13.90
2023-08-01T22:01:41.701Z,13.87
2023-08-01T22:04:07.960Z,13.92
2023-08-01T22:06:34.279Z,13.95
2023-08-01T22:09:00.543Z,13.82
2023-08-01T22:11:26.797Z,13.88
2023-08-01T22:13:53.046Z,13.80
2023-08-01T22:16:19.346Z,13.73
2023-08-01T22:18:45.594Z,13.50
2023-08-01T22:21:11.913Z,13.56
2023-08-01T22:23:38.199Z,13.65
2023-08-01T22:26:04.461Z,13.53
2023-08-01T22:28:30.768Z,13.54
2023-08-01T22:30:57.075Z,13.50
2023-08-01T22:33:23.411Z,13.44
2023-08-01T22:35:49.642Z,13.55
2023-08-01T22:38:15.920Z,13.52
2023-08-01T22:40:42.176Z,13.57
2023-08-01T22:43:08.387Z,13.61
2023-08-01T22:45:34.634Z,13.46
2023-08-01T22:48:00.966Z,13.36
2023-08-01T22:50:27.215Z,13.39
2023-08-01T22:52:53.471Z,13.49
2023-08-01T22:55:19.751Z,13.53
2023-08-01T22:57:45.964Z,13.50
2023-08-01T23:00:12.276Z,13.47
2023-08-01T23:02:38.653Z,13.49
2023-08-01T23:05:04.938Z,13.38
2023-08-01T23:07:31.180Z,13.33
2023-08-01T23:09:57.473Z,13.35
2023-08-01T23:21:04.841Z,13.16
2023-08-01T23:23:31.207Z,13.35
2023-08-01T23:25:57.486Z,13.31
2023-08-01T23:28:23.701Z,13.33
2023-08-01T23:30:49.970Z,13.35
2023-08-01T23:33:16.238Z,13.44
2023-08-01T23:35:42.527Z,13.55
2023-08-01T23:38:08.787Z,13.43
2023-08-01T23:40:35.029Z,13.40
2023-08-01T23:43:01.273Z,13.39
2023-08-01T23:45:27.534Z,13.43
2023-08-01T23:47:53.790Z,13.51
2023-08-01T23:50:20.040Z,13.49
2023-08-01T23:52:46.309Z,13.39
2023-08-01T23:55:12.599Z,13.45
2023-08-01T23:57:38.906Z,13.36
